Terminal Aerodrome Forecast
Issued by NWS

Home | Current Version | Previous Version | Text Only | Print | Product List | Glossary On
Versions: 1 2 3 4 5 6 7 8 9 10 11 12 13 14 15 16 17 18
342
FTUS43 KEAX 181732
TAFSTJ
TAF
KSTJ 181732Z 1818/1918 21010KT P6SM SCT040 SCT200
     FM182100 23008KT P6SM VCTS SCT040CB SCT200
     FM182300 VRB04KT P6SM VCTS BKN040CB BKN200
      TEMPO 1823/1901 4SM TSRA OVC035CB
     FM190300 32007KT P6SM SCT200=

USA.gov is the U.S. government's official web portal to all federal, state and local government web resources and services.